createdAt,value
2019-03-12T00:01:07.704Z,1.83
2019-03-12T00:03:37.340Z,3.53
2019-03-12T00:06:07.004Z,3.47
2019-03-12T00:08:36.685Z,3.00
2019-03-12T00:11:06.375Z,1.60
2019-03-12T00:13:36.004Z,1.93
2019-03-12T00:16:05.719Z,1.67
2019-03-12T00:18:35.371Z,3.17
2019-03-12T00:21:05.154Z,1.70
2019-03-12T00:23:34.770Z,2.33
2019-03-12T00:26:04.454Z,1.47
2019-03-12T00:28:34.118Z,3.23
2019-03-12T00:31:03.777Z,1.40
2019-03-12T00:33:33.435Z,1.37
2019-03-12T00:36:03.057Z,4.10
2019-03-12T00:38:32.703Z,2.17
2019-03-12T00:41:02.372Z,1.57
2019-03-12T00:43:32.028Z,2.30
2019-03-12T00:46:01.640Z,1.40
2019-03-12T00:48:31.299Z,2.33
2019-03-12T00:51:00.893Z,2.17
2019-03-12T00:53:30.576Z,1.30
2019-03-12T00:56:00.200Z,2.17
2019-03-12T00:58:29.909Z,2.40
2019-03-12T01:00:59.513Z,1.33
2019-03-12T01:03:29.138Z,1.20
2019-03-12T01:05:58.762Z,2.37
2019-03-12T01:08:28.369Z,2.67
2019-03-12T01:10:57.966Z,1.53
2019-03-12T01:13:27.586Z,2.80
2019-03-12T01:15:57.215Z,1.80
2019-03-12T01:18:26.836Z,1.73
2019-03-12T01:20:56.471Z,3.60
2019-03-12T01:23:26.133Z,2.37
2019-03-12T01:25:55.751Z,1.40
2019-03-12T01:28:25.368Z,1.30
2019-03-12T01:30:54.966Z,1.83
2019-03-12T01:33:24.582Z,2.67
2019-03-12T01:35:54.185Z,3.97
2019-03-12T01:38:24.172Z,3.87
2019-03-12T01:40:53.827Z,1.60
2019-03-12T01:43:23.402Z,1.47
2019-03-12T01:45:53.006Z,1.50
2019-03-12T01:48:22.629Z,1.43
2019-03-12T01:50:52.263Z,1.47
2019-03-12T01:53:21.872Z,1.53
2019-03-12T01:55:51.483Z,1.50
2019-03-12T01:58:21.099Z,1.63
2019-03-12T02:00:50.828Z,1.77
2019-03-12T02:03:20.452Z,1.40
2019-03-12T02:05:50.056Z,1.67
2019-03-12T02:08:19.773Z,1.50
2019-03-12T02:10:49.413Z,1.80
2019-03-12T02:13:19.004Z,2.03
2019-03-12T02:15:48.617Z,1.27
2019-03-12T02:18:18.232Z,2.57
2019-03-12T02:20:47.879Z,2.17
2019-03-12T02:23:17.486Z,4.33
2019-03-12T02:25:47.114Z,1.27
2019-03-12T02:28:16.724Z,1.50
2019-03-12T02:30:46.372Z,1.57
2019-03-12T02:33:15.998Z,1.30
2019-03-12T02:35:45.665Z,2.60
2019-03-12T02:38:15.311Z,2.60
2019-03-12T02:40:45.012Z,2.90
2019-03-12T02:43:14.622Z,1.40
2019-03-12T02:45:44.239Z,2.27
2019-03-12T02:48:13.857Z,1.83
2019-03-12T02:50:43.469Z,3.17
2019-03-12T02:53:13.408Z,2.03
2019-03-12T02:55:43.131Z,1.23
2019-03-12T02:58:12.751Z,1.97
2019-03-12T03:00:42.503Z,1.70
2019-03-12T03:03:12.102Z,1.40
2019-03-12T03:05:51.909Z,4.30
2019-03-12T03:08:25.235Z,1.50
2019-03-12T03:10:55.077Z,1.50
2019-03-12T03:13:24.660Z,1.60
2019-03-12T03:15:54.251Z,1.53
2019-03-12T03:18:23.903Z,1.60
2019-03-12T03:20:53.500Z,1.47
2019-03-12T03:23:23.126Z,3.23
2019-03-12T03:25:52.727Z,2.93
2019-03-12T03:28:22.350Z,1.83
2019-03-12T03:30:51.960Z,4.83
2019-03-12T03:33:21.599Z,2.03
2019-03-12T03:35:51.208Z,1.47
2019-03-12T03:38:20.825Z,2.27
2019-03-12T03:40:50.469Z,1.27
2019-03-12T03:43:20.183Z,2.10
2019-03-12T03:45:49.784Z,4.80
2019-03-12T03:48:19.422Z,2.63
2019-03-12T03:50:49.022Z,2.77
2019-03-12T03:53:18.615Z,2.43
2019-03-12T03:55:48.238Z,1.27
2019-03-12T03:58:17.936Z,2.40
2019-03-12T04:00:47.554Z,1.17
2019-03-12T04:03:17.181Z,1.33
2019-03-12T04:05:46.836Z,1.37
2019-03-12T04:08:16.510Z,2.63
2019-03-12T04:10:46.079Z,2.53
2019-03-12T04:13:15.723Z,1.53
2019-03-12T04:15:45.554Z,1.83
2019-03-12T04:18:15.179Z,1.63
2019-03-12T04:20:44.806Z,4.60
2019-03-12T04:23:16.002Z,2.37
2019-03-12T04:25:45.716Z,2.57
2019-03-12T04:28:15.348Z,2.97
2019-03-12T04:30:44.992Z,2.40
2019-03-12T04:33:50.867Z,1.67
2019-03-12T04:36:20.495Z,1.70
2019-03-12T04:38:50.149Z,3.00
2019-03-12T04:41:19.757Z,2.73
2019-03-12T04:43:49.368Z,3.13
2019-03-12T04:46:19.052Z,2.83
2019-03-12T04:48:48.686Z,1.50
2019-03-12T04:51:18.324Z,1.53
2019-03-12T04:53:47.932Z,1.80
2019-03-12T04:56:17.557Z,1.23
2019-03-12T04:58:47.186Z,2.70
2019-03-12T05:01:16.838Z,4.00
2019-03-12T05:03:46.588Z,2.80
2019-03-12T05:06:19.414Z,1.93
2019-03-12T05:08:47.506Z,2.57
2019-03-12T05:11:17.148Z,4.93
2019-03-12T05:14:23.545Z,6.07
2019-03-12T05:16:54.745Z,3.37
2019-03-12T05:19:25.244Z,4.73
2019-03-12T05:21:54.871Z,3.47
2019-03-12T05:24:24.486Z,4.63
2019-03-12T05:26:54.224Z,2.83
2019-03-12T05:29:23.827Z,4.30
2019-03-12T05:31:53.466Z,5.13
2019-03-12T05:34:23.419Z,2.50
2019-03-12T05:36:53.368Z,1.60
2019-03-12T05:39:23.151Z,3.63
2019-03-12T05:41:57.790Z,2.20
2019-03-12T05:44:29.198Z,3.90
2019-03-12T05:46:58.765Z,4.20
2019-03-12T05:49:28.403Z,5.17
2019-03-12T05:51:58.282Z,6.07
2019-03-12T05:54:27.907Z,3.77
2019-03-12T05:56:57.517Z,3.40
2019-03-12T05:59:27.295Z,2.80
2019-03-12T06:01:57.039Z,4.47
2019-03-12T06:04:26.762Z,6.73
2019-03-12T06:07:05.556Z,5.60
2019-03-12T06:09:35.336Z,4.80
2019-03-12T06:12:04.986Z,3.43
2019-03-12T06:14:34.640Z,5.63
2019-03-12T06:17:04.235Z,2.53
2019-03-12T06:19:33.879Z,4.47
2019-03-12T06:22:03.733Z,3.33
2019-03-12T06:24:33.345Z,8.20
2019-03-12T06:27:03.003Z,5.43
2019-03-12T06:29:32.646Z,6.30
2019-03-12T06:32:21.146Z,4.63
2019-03-12T06:35:12.495Z,2.80
2019-03-12T06:37:47.557Z,2.90
2019-03-12T06:40:28.571Z,4.20
2019-03-12T06:43:20.071Z,4.43
2019-03-12T06:46:20.585Z,2.57
2019-03-12T06:49:09.080Z,2.47
2019-03-12T06:51:55.939Z,3.00
2019-03-12T06:54:44.442Z,5.80
2019-03-12T06:57:38.843Z,3.57
2019-03-12T07:00:27.756Z,6.07
2019-03-12T07:03:22.099Z,2.50
2019-03-12T07:06:28.563Z,4.93
2019-03-12T07:09:28.747Z,7.70
2019-03-12T07:12:08.675Z,4.37
2019-03-12T07:14:42.942Z,5.13
2019-03-12T07:17:17.062Z,4.10
2019-03-12T07:20:13.327Z,5.83
2019-03-12T07:22:59.508Z,2.37
2019-03-12T07:25:40.135Z,5.73
2019-03-12T07:28:31.775Z,5.70
2019-03-12T07:31:14.940Z,6.27
2019-03-12T07:33:50.389Z,3.33
2019-03-12T07:36:47.945Z,4.37
2019-03-12T07:39:36.463Z,5.40
2019-03-12T07:42:21.367Z,4.70
2019-03-12T07:45:08.352Z,9.30
2019-03-12T07:48:05.887Z,3.10
2019-03-12T07:51:09.579Z,3.63
2019-03-12T07:54:02.979Z,4.97
2019-03-12T07:56:57.594Z,6.57
2019-03-12T07:59:47.588Z,8.50
2019-03-12T08:02:29.743Z,3.50
2019-03-12T08:05:21.031Z,11.00
2019-03-12T08:08:09.532Z,8.27
2019-03-12T08:10:58.076Z,2.63
2019-03-12T08:13:48.752Z,8.73
2019-03-12T08:16:32.394Z,7.80
2019-03-12T08:19:23.919Z,13.33
2019-03-12T08:22:12.462Z,5.33
2019-03-12T08:24:50.871Z,5.67
2019-03-12T08:27:45.434Z,4.43
2019-03-12T08:30:33.937Z,3.80
2019-03-12T08:33:21.124Z,3.67
2019-03-12T08:36:09.615Z,9.90
2019-03-12T08:38:56.791Z,7.97
2019-03-12T08:42:00.264Z,3.30
2019-03-12T08:44:48.847Z,5.73
2019-03-12T08:47:43.265Z,7.00
2019-03-12T08:50:31.794Z,6.13
2019-03-12T08:53:26.158Z,4.77
2019-03-12T08:56:12.400Z,1.87
2019-03-12T08:58:55.693Z,2.27
2019-03-12T09:01:50.380Z,5.07
2019-03-12T09:04:47.935Z,5.17
2019-03-12T09:07:35.096Z,10.50
2019-03-12T09:10:32.040Z,6.43
2019-03-12T09:13:07.191Z,6.37
2019-03-12T09:16:01.460Z,11.63
2019-03-12T09:19:01.890Z,6.47
2019-03-12T09:21:56.174Z,5.30
2019-03-12T09:24:36.177Z,6.07
2019-03-12T09:27:21.612Z,6.50
2019-03-12T09:30:16.488Z,3.57
2019-03-12T09:32:52.999Z,4.57
2019-03-12T09:35:30.123Z,5.13
2019-03-12T09:38:09.243Z,3.30
2019-03-12T09:40:57.893Z,2.23
2019-03-12T09:43:43.751Z,6.77
2019-03-12T09:46:29.320Z,6.63
2019-03-12T09:49:16.459Z,2.83
2019-03-12T09:51:52.801Z,2.47
2019-03-12T09:54:50.097Z,6.97
2019-03-12T09:57:44.493Z,6.93
2019-03-12T10:00:29.855Z,4.80
2019-03-12T10:03:24.216Z,6.47
2019-03-12T10:06:12.314Z,2.17
2019-03-12T10:08:48.017Z,5.90
2019-03-12T10:11:27.775Z,2.03
2019-03-12T10:14:14.649Z,6.43
2019-03-12T10:17:00.378Z,3.57
2019-03-12T10:19:54.200Z,5.60
2019-03-12T10:22:43.561Z,1.83
2019-03-12T10:25:41.004Z,3.83
2019-03-12T10:28:29.503Z,3.47
2019-03-12T10:31:18.003Z,4.93
2019-03-12T10:34:05.276Z,3.83
2019-03-12T10:36:52.130Z,4.53
2019-03-12T10:40:07.776Z,4.60
2019-03-12T10:42:47.692Z,3.93
2019-03-12T10:45:45.164Z,7.30
2019-03-12T10:48:15.106Z,2.77
2019-03-12T10:50:44.901Z,3.73
2019-03-12T10:53:14.583Z,6.10
2019-03-12T10:55:44.257Z,4.67
2019-03-12T10:58:13.918Z,8.00
2019-03-12T11:00:44.213Z,8.07
2019-03-12T11:03:13.889Z,6.23
2019-03-12T11:05:46.264Z,5.50
2019-03-12T11:08:14.912Z,5.07
2019-03-12T11:10:44.574Z,3.03
2019-03-12T11:13:14.787Z,1.73
2019-03-12T11:15:44.741Z,4.75
2019-03-12T11:18:14.397Z,4.30
2019-03-12T11:20:44.043Z,3.55
2019-03-12T11:23:13.699Z,3.12
2019-03-12T11:25:43.377Z,5.12
2019-03-12T11:28:13.078Z,5.12
2019-03-12T11:30:42.743Z,3.85
2019-03-12T11:33:12.477Z,3.17
2019-03-12T11:35:42.088Z,8.45
2019-03-12T11:38:11.798Z,4.40
2019-03-12T11:40:41.491Z,5.60
2019-03-12T11:43:11.237Z,2.40
2019-03-12T11:45:40.927Z,5.53
2019-03-12T11:48:10.664Z,3.92
2019-03-12T11:50:40.352Z,6.00
2019-03-12T11:53:10.015Z,4.62
2019-03-12T11:55:39.815Z,5.85
2019-03-12T11:58:09.488Z,2.35
2019-03-12T12:00:56.722Z,3.58
2019-03-12T12:03:26.515Z,6.37
2019-03-12T12:05:56.248Z,1.90
2019-03-12T12:08:25.922Z,3.55
2019-03-12T12:10:55.641Z,2.75
2019-03-12T12:13:25.297Z,6.40
2019-03-12T12:15:54.966Z,11.80
2019-03-12T12:18:24.622Z,6.17
2019-03-12T12:20:54.278Z,7.00
2019-03-12T12:23:23.964Z,9.50
2019-03-12T12:25:53.613Z,3.15
2019-03-12T12:28:23.307Z,8.15
2019-03-12T12:30:52.999Z,1.60
2019-03-12T12:33:22.660Z,1.70
2019-03-12T12:35:52.286Z,3.95
2019-03-12T12:38:21.931Z,3.58
2019-03-12T12:40:51.580Z,3.10
2019-03-12T12:43:21.223Z,5.05
2019-03-12T12:45:50.905Z,4.12
2019-03-12T12:48:20.713Z,4.45
2019-03-12T12:51:02.558Z,4.22
2019-03-12T12:53:21.610Z,8.83
2019-03-12T12:55:51.325Z,3.00
2019-03-12T12:58:20.969Z,5.75
2019-03-12T13:00:50.753Z,5.75
2019-03-12T13:03:20.391Z,4.95
2019-03-12T13:05:50.060Z,5.90
2019-03-12T13:08:19.741Z,5.20
2019-03-12T13:10:49.429Z,6.30
2019-03-12T13:13:19.120Z,4.12
2019-03-12T13:15:48.776Z,3.12
2019-03-12T13:18:18.550Z,3.02
2019-03-12T13:20:48.219Z,2.30
2019-03-12T13:23:17.926Z,4.00
2019-03-12T13:25:47.631Z,4.37
2019-03-12T13:28:17.299Z,3.62
2019-03-12T13:30:46.966Z,7.03
2019-03-12T13:33:16.610Z,4.78
2019-03-12T13:35:49.191Z,5.00
2019-03-12T13:38:17.532Z,1.05
2019-03-12T13:40:47.131Z,2.85
2019-03-12T13:43:16.785Z,2.72
2019-03-12T13:45:46.422Z,1.83
2019-03-12T13:48:16.214Z,2.10
2019-03-12T13:50:46.040Z,4.37
2019-03-12T13:53:15.681Z,6.57
2019-03-12T13:55:45.305Z,1.57
2019-03-12T13:58:14.895Z,3.60
2019-03-12T14:00:44.522Z,3.37
2019-03-12T14:03:14.220Z,4.37
2019-03-12T14:05:43.892Z,7.10
2019-03-12T14:08:13.519Z,8.03
2019-03-12T14:10:43.183Z,4.33
2019-03-12T14:13:12.852Z,4.10
2019-03-12T14:15:42.539Z,4.93
2019-03-12T14:18:12.582Z,7.23
2019-03-12T14:20:47.119Z,2.50
2019-03-12T14:23:39.697Z,5.70
2019-03-12T14:26:09.429Z,2.57
2019-03-12T14:28:39.467Z,4.73
2019-03-12T14:31:09.192Z,4.17
2019-03-12T14:33:38.850Z,2.60
2019-03-12T14:36:08.480Z,2.90
2019-03-12T14:38:38.088Z,6.47
2019-03-12T14:41:07.723Z,8.97
2019-03-12T14:43:37.518Z,4.00
2019-03-12T14:46:07.122Z,2.83
2019-03-12T14:48:57.109Z,3.23
2019-03-12T14:52:19.601Z,1.63
2019-03-12T14:54:49.225Z,1.33
2019-03-12T14:57:18.854Z,6.60
2019-03-12T14:59:49.016Z,2.23
2019-03-12T15:02:18.741Z,5.97
2019-03-12T15:04:48.357Z,10.13
2019-03-12T15:07:17.939Z,6.63
2019-03-12T15:09:47.601Z,2.67
2019-03-12T15:12:17.636Z,6.73
2019-03-12T15:14:47.286Z,8.87
2019-03-12T15:17:16.866Z,4.40
2019-03-12T15:19:46.487Z,5.33
2019-03-12T15:22:16.172Z,6.50
2019-03-12T15:24:45.878Z,4.27
2019-03-12T15:27:15.485Z,6.23
2019-03-12T15:29:45.202Z,2.97
2019-03-12T15:32:14.748Z,1.80
2019-03-12T15:34:44.584Z,1.50
2019-03-12T15:37:14.263Z,5.83
2019-03-12T15:39:45.553Z,3.00
2019-03-12T15:42:15.216Z,5.93
2019-03-12T15:44:44.853Z,4.47
2019-03-12T15:47:14.513Z,2.97
2019-03-12T15:49:44.682Z,6.33
2019-03-12T15:52:14.439Z,8.50
2019-03-12T15:54:44.228Z,5.73
2019-03-12T15:57:13.886Z,3.40
2019-03-12T15:59:43.519Z,4.27
2019-03-12T16:02:13.204Z,6.17
2019-03-12T16:04:42.800Z,7.53
2019-03-12T16:07:12.418Z,5.93
2019-03-12T16:09:42.015Z,3.97
2019-03-12T16:12:11.643Z,5.07
2019-03-12T16:14:41.256Z,6.90
2019-03-12T16:17:10.892Z,8.33
2019-03-12T16:19:40.519Z,4.37
2019-03-12T16:22:10.115Z,6.50
2019-03-12T16:24:39.738Z,4.90
2019-03-12T16:27:09.346Z,10.27
2019-03-12T16:29:39.012Z,4.60
2019-03-12T16:32:08.637Z,7.90
2019-03-12T16:34:38.274Z,6.43
2019-03-12T16:37:07.898Z,11.73
2019-03-12T16:39:37.552Z,6.13
2019-03-12T16:42:07.161Z,3.63
2019-03-12T16:44:37.143Z,6.93
2019-03-12T16:47:06.770Z,8.37
2019-03-12T16:49:36.371Z,6.70
2019-03-12T16:52:06.008Z,10.37
2019-03-12T16:54:35.617Z,18.73
2019-03-12T16:57:05.898Z,7.87
2019-03-12T16:59:35.596Z,4.43
2019-03-12T17:02:05.244Z,8.00
2019-03-12T17:04:34.917Z,8.10
2019-03-12T17:07:04.535Z,12.73
2019-03-12T17:09:34.146Z,15.13
2019-03-12T17:12:03.765Z,16.23
2019-03-12T17:14:38.886Z,11.20
2019-03-12T17:17:04.669Z,10.83
2019-03-12T17:19:34.454Z,13.17
2019-03-12T17:22:04.122Z,6.00
2019-03-12T17:24:33.767Z,10.43
2019-03-12T17:27:03.393Z,6.70
2019-03-12T17:29:33.077Z,10.43
2019-03-12T17:32:02.674Z,15.33
2019-03-12T17:34:36.027Z,15.47
2019-03-12T17:37:03.549Z,16.33
2019-03-12T17:39:33.326Z,9.73
2019-03-12T17:42:03.059Z,12.87
2019-03-12T17:44:32.706Z,8.00
2019-03-12T17:47:02.343Z,16.07
2019-03-12T17:49:31.975Z,10.80
2019-03-12T17:52:01.601Z,8.13
2019-03-12T17:54:32.275Z,20.53
2019-03-12T17:57:01.978Z,18.87
2019-03-12T17:59:31.577Z,29.50
2019-03-12T18:02:01.219Z,21.37
2019-03-12T18:04:30.862Z,20.57
2019-03-12T18:07:00.539Z,27.90
2019-03-12T18:09:30.179Z,18.23
2019-03-12T18:11:59.832Z,18.67
2019-03-12T18:14:29.430Z,21.77
2019-03-12T18:16:59.060Z,20.37
2019-03-12T18:19:28.727Z,17.20
2019-03-12T18:21:58.395Z,11.77
2019-03-12T18:24:28.073Z,8.90
2019-03-12T18:26:57.717Z,14.77
2019-03-12T18:29:27.411Z,19.93
2019-03-12T18:31:57.071Z,20.73
2019-03-12T18:34:26.708Z,6.80
2019-03-12T18:36:56.353Z,19.07
2019-03-12T18:39:26.019Z,7.13
2019-03-12T18:41:56.010Z,12.47
2019-03-12T18:44:25.716Z,13.43
2019-03-12T18:46:55.429Z,10.63
2019-03-12T18:49:25.085Z,15.73
2019-03-12T18:51:54.737Z,7.80
2019-03-12T18:54:24.379Z,8.13
2019-03-12T18:56:54.044Z,8.00
2019-03-12T18:59:23.733Z,7.43
2019-03-12T19:01:53.374Z,10.60
2019-03-12T19:04:23.472Z,6.43
2019-03-12T19:06:53.227Z,6.33
2019-03-12T19:09:28.480Z,6.63
2019-03-12T19:11:58.225Z,8.57
2019-03-12T19:14:27.839Z,7.70
2019-03-12T19:16:57.473Z,11.67
2019-03-12T19:19:37.464Z,8.97
2019-03-12T19:22:09.417Z,13.17
2019-03-12T19:24:42.350Z,5.77
2019-03-12T19:27:13.632Z,6.23
2019-03-12T19:29:46.107Z,8.23
2019-03-12T19:32:29.808Z,12.53
2019-03-12T19:35:03.744Z,11.50
2019-03-12T19:37:33.594Z,8.53
2019-03-12T19:40:18.160Z,11.00
2019-03-12T19:42:51.633Z,4.47
2019-03-12T19:45:23.499Z,13.33
2019-03-12T19:47:54.604Z,16.57
2019-03-12T19:50:28.128Z,9.47
2019-03-12T19:52:58.011Z,20.03
2019-03-12T19:55:35.659Z,7.03
2019-03-12T19:58:05.541Z,10.97
2019-03-12T20:00:35.736Z,6.63
2019-03-12T20:03:10.659Z,7.27
2019-03-12T20:05:37.162Z,7.50
2019-03-12T20:08:06.827Z,4.67
2019-03-12T20:11:12.951Z,7.73
2019-03-12T20:14:38.970Z,5.63
2019-03-12T20:17:57.406Z,4.63
2019-03-12T20:21:13.988Z,3.90
2019-03-12T20:24:33.202Z,3.73
2019-03-12T20:27:50.132Z,5.27
2019-03-12T20:30:50.913Z,4.93
2019-03-12T20:34:01.617Z,7.07
2019-03-12T20:37:06.333Z,7.43
2019-03-12T20:40:19.844Z,7.07
2019-03-12T20:43:24.867Z,2.60
2019-03-12T20:46:32.143Z,4.53
2019-03-12T20:49:29.938Z,4.73
2019-03-12T20:52:26.557Z,2.43
2019-03-12T20:55:46.049Z,7.53
2019-03-12T20:59:02.504Z,6.93
2019-03-12T21:02:08.508Z,4.10
2019-03-12T21:05:14.525Z,3.97
2019-03-12T21:08:29.684Z,2.80
2019-03-12T21:11:54.251Z,5.20
2019-03-12T21:15:09.356Z,3.83
2019-03-12T21:18:18.539Z,6.70
2019-03-12T21:21:34.383Z,4.63
2019-03-12T21:24:24.539Z,3.60
2019-03-12T21:27:21.507Z,4.83
2019-03-12T21:29:50.509Z,2.97
2019-03-12T21:32:20.617Z,4.83
2019-03-12T21:34:51.664Z,6.73
2019-03-12T21:37:24.594Z,4.87
2019-03-12T21:39:56.057Z,4.00
2019-03-12T21:42:25.911Z,6.17
2019-03-12T21:44:55.666Z,5.30
2019-03-12T21:47:25.440Z,5.03
2019-03-12T21:49:58.159Z,3.43
2019-03-12T21:52:32.620Z,3.13
2019-03-12T21:55:02.422Z,4.87
2019-03-12T21:57:32.065Z,4.17
2019-03-12T22:00:01.699Z,3.67
2019-03-12T22:02:31.341Z,5.03
2019-03-12T22:05:01.968Z,3.27
2019-03-12T22:07:31.644Z,4.37
2019-03-12T22:10:01.309Z,5.13
2019-03-12T22:12:30.967Z,5.03
2019-03-12T22:15:00.624Z,3.03
2019-03-12T22:17:30.289Z,3.20
2019-03-12T22:19:59.990Z,2.60
2019-03-12T22:22:33.963Z,4.70
2019-03-12T22:25:03.827Z,3.23
2019-03-12T22:27:33.471Z,2.77
2019-03-12T22:30:03.265Z,3.00
2019-03-12T22:32:32.910Z,3.70
2019-03-12T22:35:02.560Z,4.20
2019-03-12T22:37:32.205Z,4.07
2019-03-12T22:40:01.817Z,6.07
2019-03-12T22:42:31.521Z,2.10
2019-03-12T22:45:01.153Z,3.23
2019-03-12T22:47:30.800Z,4.23
2019-03-12T22:50:00.532Z,3.67
2019-03-12T22:52:30.194Z,2.37
2019-03-12T22:55:03.208Z,4.60
2019-03-12T22:57:31.141Z,1.40
2019-03-12T23:00:00.823Z,3.73
2019-03-12T23:02:30.521Z,1.50
2019-03-12T23:05:00.329Z,2.07
2019-03-12T23:07:30.088Z,4.00
2019-03-12T23:09:59.844Z,1.63
2019-03-12T23:12:29.553Z,1.63
2019-03-12T23:14:59.179Z,1.90
2019-03-12T23:17:28.891Z,2.00
2019-03-12T23:19:58.659Z,4.03
2019-03-12T23:22:28.532Z,1.70
2019-03-12T23:24:58.297Z,3.50
2019-03-12T23:27:28.138Z,1.50
2019-03-12T23:29:57.845Z,4.37
2019-03-12T23:32:27.586Z,2.00
2019-03-12T23:34:57.654Z,3.43
2019-03-12T23:37:27.360Z,2.43
2019-03-12T23:39:57.042Z,2.20
2019-03-12T23:42:26.736Z,2.20
2019-03-12T23:44:56.496Z,2.53
2019-03-12T23:47:26.110Z,3.03
2019-03-12T23:49:55.791Z,2.10
2019-03-12T23:52:25.415Z,3.33
2019-03-12T23:54:55.068Z,2.37
2019-03-12T23:57:24.726Z,3.40
2019-03-12T23:59:54.376Z,4.27
